createdAt,value
2019-04-23T00:01:43.308Z,3.60
2019-04-23T00:04:13.257Z,3.47
2019-04-23T00:06:59.430Z,3.50
2019-04-23T00:09:21.181Z,3.60
2019-04-23T00:11:46.206Z,3.42
2019-04-23T00:14:52.049Z,3.72
2019-04-23T00:17:19.264Z,3.75
2019-04-23T00:19:45.143Z,3.25
2019-04-23T00:22:20.207Z,3.52
2019-04-23T00:25:25.072Z,4.00
2019-04-23T00:29:56.433Z,3.80
2019-04-23T00:32:28.702Z,3.95
2019-04-23T00:42:29.559Z,3.10
2019-04-23T00:44:58.673Z,4.12
2019-04-23T00:47:33.308Z,4.20
2019-04-23T00:50:07.663Z,3.87
2019-04-23T00:55:05.511Z,3.85
2019-04-23T00:57:35.558Z,3.90
2019-04-23T01:00:22.187Z,3.60
2019-04-23T01:05:11.847Z,4.00
2019-04-23T01:07:38.086Z,3.83
2019-04-23T01:10:15.007Z,5.08
2019-04-23T01:12:46.181Z,4.30
2019-04-23T01:15:32.655Z,4.45
2019-04-23T01:18:02.215Z,4.20
2019-04-23T01:20:46.809Z,4.55
2019-04-23T01:22:52.992Z,4.05
2019-04-23T01:25:35.101Z,4.40
2019-04-23T01:28:40.011Z,4.15
2019-04-23T01:31:02.508Z,4.35
2019-04-23T01:33:32.965Z,4.40
2019-04-23T01:36:12.478Z,4.12
2019-04-23T01:38:35.566Z,4.72
2019-04-23T01:40:53.831Z,4.65
2019-04-23T01:43:33.663Z,4.97
2019-04-23T01:46:01.255Z,4.65
2019-04-23T01:48:39.171Z,4.50
2019-04-23T01:50:56.078Z,4.85
2019-04-23T01:53:34.605Z,5.15
2019-04-23T01:56:01.347Z,5.58
2019-04-23T02:03:36.548Z,5.15
2019-04-23T02:08:36.608Z,5.37
2019-04-23T02:11:05.356Z,4.95
2019-04-23T02:13:42.054Z,5.60
2019-04-23T02:16:11.301Z,5.20
2019-04-23T02:18:44.120Z,5.15
2019-04-23T02:21:10.683Z,6.60
2019-04-23T02:23:52.172Z,6.03
2019-04-23T02:26:23.354Z,5.58
2019-04-23T02:38:55.996Z,6.85
2019-04-23T02:41:35.121Z,6.12
2019-04-23T02:44:13.139Z,5.90
2019-04-23T02:46:27.358Z,5.60
2019-04-23T02:49:12.461Z,5.90
2019-04-23T02:51:35.145Z,6.60
2019-04-23T02:59:11.026Z,6.85
2019-04-23T03:01:29.811Z,6.17
2019-04-23T03:09:15.271Z,6.45
2019-04-23T03:11:41.518Z,7.87
2019-04-23T03:16:53.329Z,7.58
2019-04-23T03:19:47.614Z,6.80
2019-04-23T03:22:15.798Z,7.95
2019-04-23T03:25:23.250Z,8.35
2019-04-23T03:35:10.270Z,8.25
2019-04-23T03:38:00.782Z,8.88
2019-04-23T03:40:19.231Z,8.25
2019-04-23T03:43:12.285Z,8.30
2019-04-23T03:45:46.621Z,7.97
2019-04-23T03:48:05.979Z,9.03
2019-04-23T03:50:35.997Z,8.28
2019-04-23T03:53:03.661Z,8.78
2019-04-23T03:55:58.683Z,8.63
2019-04-23T03:58:10.564Z,7.80
2019-04-23T04:00:45.662Z,9.18
2019-04-23T04:03:52.996Z,9.50
2019-04-23T04:10:51.965Z,10.00
2019-04-23T04:13:22.746Z,9.08
2019-04-23T04:15:55.666Z,10.20
2019-04-23T04:18:31.020Z,10.10
2019-04-23T04:23:22.661Z,10.05
2019-04-23T04:28:28.593Z,9.53
2019-04-23T04:30:49.064Z,9.33
2019-04-23T04:33:49.011Z,9.50
2019-04-23T04:36:13.252Z,9.18
2019-04-23T04:38:36.450Z,9.90
2019-04-23T04:41:06.024Z,9.75
2019-04-23T04:46:07.576Z,8.13
2019-04-23T04:48:26.126Z,9.30
2019-04-23T04:55:54.859Z,9.18
2019-04-23T04:58:32.233Z,8.10
2019-04-23T05:01:16.502Z,8.58
2019-04-23T05:03:28.462Z,9.65
2019-04-23T05:11:19.524Z,9.50
2019-04-23T05:13:41.255Z,9.30
2019-04-23T05:15:58.091Z,8.75
2019-04-23T05:21:26.544Z,9.68
2019-04-23T05:24:06.776Z,10.10
2019-04-23T05:26:27.184Z,10.80
2019-04-23T05:29:15.255Z,9.68
2019-04-23T05:31:32.603Z,9.98
2019-04-23T05:34:24.292Z,9.60
2019-04-23T05:36:42.773Z,10.00
2019-04-23T05:39:17.492Z,9.40
2019-04-23T05:44:15.535Z,9.28
2019-04-23T05:46:42.922Z,8.98
2019-04-23T05:49:14.270Z,8.60
2019-04-23T05:54:17.437Z,8.60
2019-04-23T05:56:43.841Z,8.63
2019-04-23T06:06:54.091Z,8.10
2019-04-23T06:09:14.272Z,9.33
2019-04-23T06:14:26.917Z,9.53
2019-04-23T06:16:49.489Z,7.92
2019-04-23T06:19:13.047Z,7.33
2019-04-23T06:21:52.914Z,20.68
2019-04-23T06:24:16.254Z,7.12
2019-04-23T06:29:15.742Z,7.95
2019-04-23T06:31:44.072Z,8.23
2019-04-23T06:36:38.855Z,8.18
2019-04-23T06:39:10.272Z,8.50
2019-04-23T06:42:11.547Z,8.50
2019-04-23T06:44:47.925Z,7.40
2019-04-23T06:47:17.037Z,7.70
2019-04-23T06:49:50.959Z,8.30
2019-04-23T06:52:18.389Z,8.78
2019-04-23T06:54:49.095Z,6.80
2019-04-23T06:59:42.531Z,7.58
2019-04-23T07:04:50.019Z,8.50
2019-04-23T07:07:39.510Z,7.50
2019-04-23T07:09:46.978Z,7.40
2019-04-23T07:12:16.543Z,7.97
2019-04-23T07:17:08.884Z,7.90
2019-04-23T07:19:42.288Z,7.97
2019-04-23T07:24:41.871Z,7.20
2019-04-23T07:27:11.724Z,6.87
2019-04-23T07:29:38.985Z,7.17
2019-04-23T07:32:08.888Z,6.67
2019-04-23T07:34:44.652Z,7.75
2019-04-23T07:39:59.053Z,7.65
2019-04-23T07:42:32.429Z,6.97
2019-04-23T07:48:06.840Z,7.95
2019-04-23T07:53:11.475Z,7.75
2019-04-23T07:55:39.796Z,7.55
2019-04-23T08:00:38.421Z,8.05
2019-04-23T08:03:08.558Z,7.15
2019-04-23T08:05:26.477Z,7.67
2019-04-23T08:08:01.633Z,6.67
2019-04-23T08:10:31.823Z,6.62
2019-04-23T08:12:58.483Z,7.65
2019-04-23T08:15:28.308Z,7.37
2019-04-23T08:17:58.631Z,7.90
2019-04-23T08:20:30.737Z,8.10
2019-04-23T08:23:06.786Z,10.78
2019-04-23T08:25:55.879Z,7.77
2019-04-23T08:28:26.754Z,6.87
2019-04-23T08:30:46.545Z,7.75
2019-04-23T08:33:17.257Z,7.13
2019-04-23T08:35:50.942Z,12.10
2019-04-23T08:40:55.645Z,8.08
2019-04-23T08:46:26.920Z,6.97
2019-04-23T08:48:49.683Z,7.42
2019-04-23T08:51:28.311Z,6.95
2019-04-23T08:53:47.974Z,7.58
2019-04-23T08:56:23.684Z,6.83
2019-04-23T08:58:48.945Z,7.35
2019-04-23T09:01:16.534Z,7.90
2019-04-23T09:04:00.405Z,6.15
2019-04-23T09:06:21.704Z,8.00
2019-04-23T09:08:50.336Z,7.60
2019-04-23T09:11:41.881Z,7.05
2019-04-23T09:13:55.607Z,7.60
2019-04-23T09:16:28.523Z,8.43
2019-04-23T09:19:04.573Z,7.35
2019-04-23T09:21:27.048Z,8.75
2019-04-23T09:26:20.549Z,7.20
2019-04-23T09:28:57.984Z,6.85
2019-04-23T09:34:04.943Z,8.10
2019-04-23T09:37:15.635Z,7.30
2019-04-23T09:39:59.524Z,7.83
2019-04-23T09:43:08.609Z,6.85
2019-04-23T09:45:59.823Z,7.63
2019-04-23T09:48:26.735Z,7.35
2019-04-23T09:50:57.024Z,7.22
2019-04-23T09:55:46.808Z,7.40
2019-04-23T09:58:34.500Z,6.97
2019-04-23T10:00:56.144Z,7.92
2019-04-23T10:03:16.168Z,7.70
2019-04-23T10:05:45.092Z,9.60
2019-04-23T10:08:15.259Z,8.33
2019-04-23T10:10:34.216Z,7.93
2019-04-23T10:13:04.060Z,8.23
2019-04-23T10:15:38.261Z,8.03
2019-04-23T10:18:02.520Z,8.80
2019-04-23T10:20:30.929Z,8.10
2019-04-23T10:23:00.178Z,7.97
2019-04-23T10:25:29.968Z,7.80
2019-04-23T10:28:01.602Z,8.67
2019-04-23T10:30:28.792Z,9.00
2019-04-23T10:32:57.847Z,8.03
2019-04-23T10:35:39.460Z,8.80
2019-04-23T10:38:03.738Z,8.70
2019-04-23T10:40:30.222Z,7.80
2019-04-23T10:42:56.540Z,9.10
2019-04-23T10:45:48.112Z,8.80
2019-04-23T10:49:11.238Z,8.03
2019-04-23T10:59:04.978Z,8.10
2019-04-23T11:01:37.631Z,9.40
2019-04-23T11:04:17.321Z,8.03
2019-04-23T11:06:50.423Z,8.43
2019-04-23T11:09:32.926Z,7.90
2019-04-23T11:11:48.334Z,9.07
2019-04-23T11:14:22.966Z,8.60
2019-04-23T11:19:15.688Z,18.23
2019-04-23T11:21:56.536Z,8.47
2019-04-23T11:24:32.475Z,8.00
2019-04-23T11:26:51.533Z,7.93
2019-04-23T11:29:25.631Z,8.80
2019-04-23T11:31:52.352Z,7.53
2019-04-23T11:34:45.577Z,8.40
2019-04-23T11:39:16.321Z,7.87
2019-04-23T11:44:42.103Z,8.00
2019-04-23T11:49:37.522Z,8.87
2019-04-23T11:51:53.990Z,9.33
2019-04-23T11:54:17.524Z,8.40
2019-04-23T11:59:29.146Z,8.27
2019-04-23T12:02:01.141Z,8.10
2019-04-23T12:04:54.240Z,9.00
2019-04-23T12:10:23.698Z,8.23
2019-04-23T12:12:39.893Z,8.43
2019-04-23T12:15:18.075Z,7.93
2019-04-23T12:20:23.673Z,7.60
2019-04-23T12:22:57.571Z,8.40
2019-04-23T12:28:01.725Z,8.80
2019-04-23T12:32:54.562Z,8.87
2019-04-23T12:35:20.742Z,8.83
2019-04-23T12:38:06.994Z,8.47
2019-04-23T12:43:12.953Z,10.17
2019-04-23T12:53:11.973Z,10.10
2019-04-23T13:00:46.219Z,10.60
2019-04-23T13:03:25.741Z,9.63
2019-04-23T13:05:31.314Z,8.93
2019-04-23T13:08:08.035Z,8.40
2019-04-23T13:10:38.299Z,9.33
2019-04-23T13:15:34.623Z,9.60
2019-04-23T13:18:04.325Z,9.47
2019-04-23T13:20:33.869Z,9.43
2019-04-23T13:23:08.588Z,9.80
2019-04-23T13:25:57.450Z,10.03
2019-04-23T13:28:28.127Z,9.20
2019-04-23T13:31:00.734Z,9.20
2019-04-23T13:33:35.265Z,10.10
2019-04-23T13:36:19.062Z,8.90
2019-04-23T13:38:33.527Z,10.20
2019-04-23T13:41:01.762Z,10.20
2019-04-23T13:43:39.791Z,10.70
2019-04-23T13:48:19.965Z,10.93
2019-04-23T13:53:37.174Z,10.10
2019-04-23T13:55:58.779Z,9.10
2019-04-23T13:58:24.828Z,9.77
2019-04-23T14:01:20.063Z,9.90
2019-04-23T14:06:18.194Z,10.83
2019-04-23T14:11:19.457Z,10.60
2019-04-23T14:13:45.611Z,9.80
2019-04-23T14:16:29.820Z,10.47
2019-04-23T14:21:14.619Z,10.90
2019-04-23T14:23:54.067Z,10.60
2019-04-23T14:27:07.307Z,11.13
2019-04-23T14:31:04.707Z,10.17
2019-04-23T14:41:09.946Z,11.20
2019-04-23T14:48:46.070Z,11.67
2019-04-23T14:51:29.175Z,11.40
2019-04-23T14:53:40.629Z,11.53
2019-04-23T14:56:23.927Z,10.70
2019-04-23T15:01:24.677Z,11.43
2019-04-23T15:08:58.884Z,12.07
2019-04-23T15:11:21.467Z,11.23
2019-04-23T15:13:42.222Z,11.20
2019-04-23T15:16:25.829Z,10.50
2019-04-23T15:19:22.059Z,11.83
2019-04-23T15:24:25.099Z,10.10
2019-04-23T15:28:55.736Z,12.47
2019-04-23T15:36:50.904Z,11.23
2019-04-23T15:39:16.920Z,11.47
2019-04-23T15:41:52.308Z,10.03
2019-04-23T15:46:38.699Z,10.90
2019-04-23T15:49:17.784Z,11.60
2019-04-23T15:51:48.942Z,10.33
2019-04-23T15:54:13.807Z,10.67
2019-04-23T15:56:41.453Z,11.87
2019-04-23T15:59:27.569Z,11.70
2019-04-23T16:01:37.619Z,11.60
2019-04-23T16:03:41.933Z,10.53
2019-04-23T16:06:10.917Z,11.07
2019-04-23T16:14:17.679Z,10.00
2019-04-23T16:19:23.670Z,10.47
2019-04-23T16:24:20.529Z,11.63
2019-04-23T16:26:55.602Z,11.70
2019-04-23T16:37:06.221Z,11.53
2019-04-23T16:39:21.556Z,10.60
2019-04-23T16:42:02.201Z,11.23
2019-04-23T16:44:40.411Z,11.70
2019-04-23T16:47:03.768Z,10.40
2019-04-23T16:49:47.923Z,11.27
2019-04-23T16:51:59.735Z,11.47
2019-04-23T16:54:32.545Z,10.67
2019-04-23T16:59:35.510Z,11.60
2019-04-23T17:04:31.181Z,11.20
2019-04-23T17:09:37.368Z,11.27
2019-04-23T17:12:06.022Z,12.40
2019-04-23T17:14:23.500Z,11.93
2019-04-23T17:16:56.748Z,11.93
2019-04-23T17:19:33.310Z,10.90
2019-04-23T17:22:05.433Z,11.97
2019-04-23T17:29:48.953Z,12.60
2019-04-23T17:32:16.605Z,13.37
2019-04-23T17:35:19.202Z,13.22
2019-04-23T17:37:48.961Z,12.00
2019-04-23T17:40:30.668Z,12.37
2019-04-23T17:43:26.373Z,12.30
2019-04-23T17:48:24.085Z,12.40
2019-04-23T17:50:56.872Z,12.33
2019-04-23T17:56:08.937Z,13.70
2019-04-23T17:58:33.414Z,12.88
2019-04-23T18:01:17.066Z,12.90
2019-04-23T18:03:55.770Z,12.13
2019-04-23T18:06:24.829Z,13.45
2019-04-23T18:08:41.540Z,12.90
2019-04-23T18:13:57.065Z,12.60
2019-04-23T18:16:18.985Z,13.15
2019-04-23T18:18:53.344Z,12.93
2019-04-23T18:21:46.183Z,12.83
2019-04-23T18:24:36.574Z,13.03
2019-04-23T18:33:43.723Z,12.77
2019-04-23T18:35:35.788Z,12.93
2019-04-23T18:38:18.590Z,13.70
2019-04-23T18:40:59.350Z,13.83
2019-04-23T18:43:30.139Z,13.20
2019-04-23T18:51:05.241Z,13.88
2019-04-23T18:58:50.345Z,13.10
2019-04-23T19:06:38.325Z,13.98
2019-04-23T19:10:03.644Z,13.90
2019-04-23T19:15:11.952Z,12.95
2019-04-23T19:20:15.937Z,13.22
2019-04-23T19:22:46.077Z,14.38
2019-04-23T19:25:19.741Z,14.78
2019-04-23T19:27:47.121Z,13.90
2019-04-23T19:33:13.728Z,13.53
2019-04-23T19:38:13.261Z,14.40
2019-04-23T19:40:56.688Z,13.83
2019-04-23T19:43:11.185Z,13.38
2019-04-23T19:45:58.039Z,13.98
2019-04-23T19:48:34.300Z,14.90
2019-04-23T19:50:48.781Z,13.53
2019-04-23T19:58:17.908Z,13.20
2019-04-23T20:01:05.452Z,12.60
2019-04-23T20:05:49.962Z,15.65
2019-04-23T20:08:25.481Z,14.70
2019-04-23T20:10:39.820Z,13.85
2019-04-23T20:13:19.710Z,14.68
2019-04-23T20:16:00.041Z,13.18
2019-04-23T20:18:11.669Z,13.78
2019-04-23T20:23:08.988Z,14.33
2019-04-23T20:28:44.260Z,13.72
2019-04-23T20:34:14.153Z,13.75
2019-04-23T20:36:38.539Z,13.83
2019-04-23T20:39:09.079Z,15.10
2019-04-23T20:41:54.836Z,14.45
2019-04-23T20:44:21.395Z,14.58
2019-04-23T20:46:51.721Z,15.23
2019-04-23T20:49:16.530Z,15.20
2019-04-23T20:51:58.086Z,14.40
2019-04-23T20:54:19.532Z,14.63
2019-04-23T20:57:00.444Z,14.38
2019-04-23T20:59:30.850Z,15.00
2019-04-23T21:02:05.741Z,14.70
2019-04-23T21:04:42.645Z,14.07
2019-04-23T21:07:30.259Z,14.65
2019-04-23T21:12:16.319Z,17.15
2019-04-23T21:17:05.349Z,14.35
2019-04-23T21:19:56.683Z,13.93
2019-04-23T21:22:13.217Z,15.23
2019-04-23T21:24:42.740Z,14.05
2019-04-23T21:27:29.226Z,14.80
2019-04-23T21:32:26.612Z,14.93
2019-04-23T21:35:05.267Z,14.87
2019-04-23T21:37:49.459Z,15.15
2019-04-23T21:43:08.866Z,15.13
2019-04-23T21:45:42.937Z,15.70
2019-04-23T21:50:49.625Z,14.38
2019-04-23T21:53:00.783Z,14.85
2019-04-23T21:55:48.683Z,16.10
2019-04-23T21:58:17.167Z,17.10
2019-04-23T22:00:53.075Z,15.63
2019-04-23T22:03:18.159Z,17.42
2019-04-23T22:05:51.176Z,16.12
2019-04-23T22:08:05.749Z,15.28
2019-04-23T22:13:22.726Z,16.15
2019-04-23T22:15:53.236Z,16.73
2019-04-23T22:18:14.347Z,16.27
2019-04-23T22:23:14.459Z,15.78
2019-04-23T22:25:52.591Z,16.05
2019-04-23T22:28:12.844Z,15.55
2019-04-23T22:30:55.053Z,14.43
2019-04-23T22:35:51.438Z,16.65
2019-04-23T22:38:18.773Z,16.05
2019-04-23T22:40:51.246Z,15.90
2019-04-23T22:43:20.392Z,16.12
2019-04-23T22:45:59.819Z,16.15
2019-04-23T22:48:25.374Z,15.53
2019-04-23T22:51:06.994Z,16.00
2019-04-23T22:53:46.371Z,15.65
2019-04-23T22:56:03.458Z,17.07
2019-04-23T22:58:23.719Z,16.20
2019-04-23T23:01:19.671Z,16.32
2019-04-23T23:03:47.531Z,15.65
2019-04-23T23:06:26.092Z,16.15
2019-04-23T23:08:57.572Z,16.87
2019-04-23T23:11:08.536Z,15.80
2019-04-23T23:14:07.141Z,17.57
2019-04-23T23:16:16.737Z,16.23
2019-04-23T23:18:48.720Z,16.73
2019-04-23T23:23:46.341Z,15.80
2019-04-23T23:26:21.968Z,16.85
2019-04-23T23:28:48.959Z,15.53
2019-04-23T23:33:54.206Z,15.98
2019-04-23T23:36:21.246Z,15.78
2019-04-23T23:39:00.349Z,16.32
2019-04-23T23:44:24.390Z,15.63
2019-04-23T23:48:56.043Z,16.35
2019-04-23T23:51:36.694Z,15.90
2019-04-23T23:54:01.984Z,17.25
2019-04-23T23:56:19.512Z,16.10
2019-04-23T23:59:04.258Z,16.07
